Air Navigation Services of Czech Republic
Airport: LKKV Updated:  21.01.2019 05:21:07  UTC
 METAR LKKV 21.01. 05:00 ...
METAR LKKV 210500Z VRB02KT 9999 BKN027 M06/M08 Q1018 R29/////// RMK REG QNH 1015=
 TAF LKKV 21.01. 05:00 ...
TAF LKKV 210500Z 2106/2212 08006KT 9999 OVC020      BECMG 2122/2200 OVC015      TEMPO 2200/2208 BKN010=